Hathaway, MT (59333)

2:51 AM MST on December 22, 2014 (GMT -0700)
Wiley | Change Station
CLOSE
Current Station
Airport
Location: Miles City,
Elevation: 2628 ft
Nearby Weather Stations

Elev 2628 ft 46.43 °N, 105.88 °W | Updated 58 minutes ago

Partly Cloudy
Partly Cloudy
39 °F
Feels Like 28 °F
N
23
Wind Variable Wind from WNW
Gusts 31 mph

Today
High -- | Low -- °F
--% Chance of Precip.
Yesterday
High -- | Low -- °F
Precip. -- in
7:45 AM 4:21 PM
New Moon, 0% visible
Pressure 29.60 in
Visibility 10.0 miles
Clouds Clear
Windchill 28 °F
Dew Point 27 °F
Humidity 62%
Rainfall 0.00 in
Snow Depth Not available.
UV 0 out of 12
Pollen .10 out of 12
Air Quality Not available.
Flu Activity Not available.
METAR KMLS 220853Z AUTO 29020G27KT 10SM CLR 04/M03 A2956 RMK AO2 PK WND 29027/0838 SLP023 T00391028 53008

More Conditions Fewer Conditions

Pressure 29.60 in
Visibility 10.0 miles
Clouds Clear
Windchill 28 °F
Dew Point 27 °F
Humidity 62%
Rainfall 0.00 in
Snow Depth Not available.
UV 0 out of 12
Pollen .10 out of 12
Air Quality Not available.
Flu Activity Not available.
METAR KMLS 220853Z AUTO 29020G27KT 10SM CLR 04/M03 A2956 RMK AO2 PK WND 29027/0838 SLP023 T00391028 53008

More Conditions Fewer Conditions

10-Day Weather Forecast

Almanac

Astronomy

Dec. 22, 2014 Rise Set
Actual Time
Civil Twilight
Nautical Twilight
Astronomical Twilight
Moon
Length of Visible Light
Length of Day
Tomorrow will be .
, % of the Moon is Illuminated

Today's Extremes

State Highs State Lows

Community

WunderPhotos

Upload Photos

1,779,583 photos uploaded!

WunderBlogs® & News

Nearby

Air Quality

  Air Quality AQ Index Pollutant
Not available.

Snow Depth

Station Depth Elevation

Earthquake Activity

City Distance Mag. Time & Date
Minimum magnitude displayed is 2.5.

Coastal Water Temperatures

Place Temperature

Nearby Weather Stations